Time;durP1;ratioP1;P1;durP2;ratioP2;P2;SDS_P1;SDS_P2;PMS_P1;PMS_P2;Temp;Humidity;BMP_temperature;BMP_pressure;BME280_temperature;BME280_humidity;BME280_pressure;Samples;Min_cycle;Max_cycle;Signal;HPM_P1;HPM_P2
2022/03/26 00:01:38;;;;;;;139.80;69.40;;;3.60;71.30;;;;;;5069539;28;20036;-68
2022/03/26 00:04:04;;;;;;;156.70;74.00;;;3.60;71.60;;;;;;5065507;28;20043;-68
2022/03/26 00:06:30;;;;;;;155.83;74.40;;;3.60;71.70;;;;;;5093793;28;20037;-68
2022/03/26 00:08:55;;;;;;;159.00;72.10;;;3.60;71.80;;;;;;5091030;28;20394;-68
2022/03/26 00:11:21;;;;;;;148.70;72.50;;;3.70;73.00;;;;;;5058771;28;20048;-68
2022/03/26 00:13:47;;;;;;;154.10;72.88;;;3.70;72.50;;;;;;5056246;28;20155;-68
2022/03/26 00:16:13;;;;;;;155.80;72.90;;;3.60;72.50;;;;;;5071169;28;20127;-67
2022/03/26 00:18:38;;;;;;;152.03;69.47;;;3.60;72.30;;;;;;5066230;28;20041;-67
2022/03/26 00:21:05;;;;;;;148.63;73.67;;;3.60;72.20;;;;;;5067344;28;20475;-67
2022/03/26 00:23:31;;;;;;;161.75;76.50;;;3.70;72.20;;;;;;5078932;28;20516;-67
2022/03/26 00:26:00;;;;;;;154.55;72.15;;;3.60;72.30;;;;;;5095381;28;20585;-67
2022/03/26 00:28:26;;;;;;;160.23;75.88;;;3.70;72.30;;;;;;5101862;27;20054;-68
2022/03/26 00:30:52;;;;;;;150.90;72.90;;;3.60;72.20;;;;;;5094743;28;20168;-68
2022/03/26 00:33:18;;;;;;;155.07;73.95;;;3.60;72.20;;;;;;5097188;27;20064;-67
2022/03/26 00:35:44;;;;;;;156.40;74.90;;;3.50;72.10;;;;;;5090762;28;20032;-67
2022/03/26 00:38:10;;;;;;;159.80;73.65;;;3.50;72.00;;;;;;5092103;27;20046;-67
2022/03/26 00:40:36;;;;;;;150.80;71.67;;;3.50;72.20;;;;;;5103495;28;20429;-67
2022/03/26 00:43:03;;;;;;;156.57;72.95;;;3.40;72.50;;;;;;5098153;28;20220;-67
2022/03/26 00:45:29;;;;;;;150.57;72.07;;;3.40;72.40;;;;;;5079166;28;20487;-67
2022/03/26 00:47:59;;;;;;;156.80;71.90;;;3.40;72.80;;;;;;5123980;27;20035;-67
2022/03/26 00:50:25;;;;;;;167.90;77.20;;;3.40;73.10;;;;;;5091108;28;20145;-68
2022/03/26 00:52:51;;;;;;;152.97;71.90;;;3.30;73.10;;;;;;5093566;28;20118;-68
2022/03/26 00:55:17;;;;;;;169.18;78.43;;;3.30;73.20;;;;;;5107127;28;20511;-68
2022/03/26 00:57:43;;;;;;;174.30;77.90;;;3.30;73.30;;;;;;5079314;28;20156;-68
2022/03/26 01:00:10;;;;;;;173.60;78.60;;;3.30;73.20;;;;;;5079117;28;20181;-67
2022/03/26 01:02:35;;;;;;;161.95;74.97;;;3.30;73.30;;;;;;5075513;28;20039;-67
2022/03/26 01:05:01;;;;;;;163.97;76.87;;;3.30;73.50;;;;;;5106028;28;20084;-68
2022/03/26 01:07:27;;;;;;;168.02;77.63;;;3.30;73.70;;;;;;5089272;28;20619;-68
2022/03/26 01:09:54;;;;;;;169.90;80.43;;;3.20;73.80;;;;;;5106961;28;20126;-67
2022/03/26 01:12:20;;;;;;;181.05;82.55;;;3.20;74.00;;;;;;5106890;28;20438;-67
2022/03/26 01:14:47;;;;;;;168.27;78.03;;;3.20;73.80;;;;;;5094381;28;20035;-67
2022/03/26 01:17:13;;;;;;;162.55;77.90;;;3.20;73.90;;;;;;5094683;28;20457;-68
2022/03/26 01:19:39;;;;;;;179.23;79.07;;;3.20;73.90;;;;;;5074567;28;20097;-68
2022/03/26 01:22:04;;;;;;;167.73;78.87;;;3.10;73.90;;;;;;5101601;28;20407;-67
2022/03/26 01:24:30;;;;;;;171.77;79.33;;;3.10;74.10;;;;;;5098861;27;20059;-67
2022/03/26 01:26:57;;;;;;;174.85;77.70;;;3.10;74.10;;;;;;5093502;28;20077;-67
2022/03/26 01:29:23;;;;;;;177.82;81.00;;;3.10;74.40;;;;;;5090905;28;20536;-67
2022/03/26 01:31:49;;;;;;;161.18;75.45;;;3.10;74.20;;;;;;5098530;27;20073;-67
2022/03/26 01:34:15;;;;;;;168.98;75.40;;;3.00;74.10;;;;;;5097404;28;20032;-68
2022/03/26 01:36:42;;;;;;;168.35;78.45;;;3.00;74.20;;;;;;5086244;28;20043;-68
2022/03/26 01:39:08;;;;;;;176.60;81.13;;;3.00;74.10;;;;;;5121926;27;20276;-68
2022/03/26 01:41:34;;;;;;;179.70;79.32;;;3.00;74.30;;;;;;5066581;27;20035;-68
2022/03/26 01:44:00;;;;;;;187.23;82.37;;;3.00;74.60;;;;;;5097225;28;20122;-68
2022/03/26 01:46:26;;;;;;;164.52;74.05;;;2.90;74.60;;;;;;5096087;28;20284;-67
2022/03/26 01:48:52;;;;;;;171.67;77.17;;;2.90;74.80;;;;;;5080697;28;20048;-68
2022/03/26 01:51:19;;;;;;;175.32;77.47;;;2.90;74.90;;;;;;5095627;28;20292;-68
2022/03/26 01:53:51;;;;;;;167.27;76.93;;;2.90;75.00;;;;;;5089377;28;20043;-68
2022/03/26 01:56:18;;;;;;;170.63;79.00;;;2.90;74.90;;;;;;5095427;28;20036;-68
2022/03/26 01:58:44;;;;;;;167.18;75.15;;;2.80;74.80;;;;;;5095675;28;20055;-68
2022/03/26 02:01:11;;;;;;;162.07;75.20;;;2.80;74.90;;;;;;5091577;27;20050;-68
2022/03/26 02:03:37;;;;;;;169.70;75.55;;;2.80;74.80;;;;;;5096260;28;20158;-68
2022/03/26 02:06:03;;;;;;;184.33;79.30;;;2.70;74.90;;;;;;5101890;28;20622;-68
2022/03/26 02:08:29;;;;;;;173.95;76.72;;;2.70;75.10;;;;;;5080372;28;20377;-68
2022/03/26 02:10:56;;;;;;;196.35;80.40;;;2.70;75.50;;;;;;5082662;28;20118;-67
2022/03/26 02:13:21;;;;;;;188.00;80.28;;;2.70;76.70;;;;;;5078810;28;20039;-68
2022/03/26 02:15:48;;;;;;;154.30;69.20;;;2.70;79.50;;;;;;5094823;28;20036;-68
2022/03/26 02:18:14;;;;;;;175.73;75.35;;;2.60;79.30;;;;;;5100349;28;20039;-68
2022/03/26 02:20:40;;;;;;;148.88;66.68;;;2.60;78.50;;;;;;5101316;28;20050;-68
2022/03/26 02:23:06;;;;;;;157.90;68.82;;;2.60;79.40;;;;;;5094717;28;20047;-68
2022/03/26 02:25:32;;;;;;;172.00;70.53;;;2.50;80.10;;;;;;5097670;28;20652;-68
2022/03/26 02:27:57;;;;;;;165.80;70.07;;;2.50;80.00;;;;;;5086741;28;20097;-68
2022/03/26 02:30:23;;;;;;;158.10;70.63;;;2.40;80.00;;;;;;5067678;28;20512;-68
2022/03/26 02:32:49;;;;;;;190.47;77.63;;;2.40;79.10;;;;;;5084464;28;20115;-68
2022/03/26 02:35:14;;;;;;;189.87;76.27;;;2.40;81.20;;;;;;5101538;27;20434;-68
2022/03/26 02:37:40;;;;;;;187.53;73.07;;;2.40;81.30;;;;;;5118884;27;20119;-68
2022/03/26 02:40:07;;;;;;;162.93;71.03;;;2.30;81.10;;;;;;5088050;28;20039;-68
2022/03/26 02:42:35;;;;;;;154.27;69.18;;;2.30;81.50;;;;;;5102335;28;20087;-68
2022/03/26 02:45:01;;;;;;;165.77;73.10;;;2.30;80.70;;;;;;5082335;28;20048;-68
2022/03/26 02:47:27;;;;;;;160.18;68.10;;;2.20;80.60;;;;;;5084014;28;20126;-68
2022/03/26 02:49:52;;;;;;;163.37;68.77;;;2.20;80.50;;;;;;5119586;27;20043;-68
2022/03/26 02:52:18;;;;;;;149.50;65.57;;;2.20;79.80;;;;;;5068578;28;20086;-68
2022/03/26 02:54:44;;;;;;;152.57;65.73;;;2.20;79.70;;;;;;5085356;28;20032;-68
2022/03/26 02:57:10;;;;;;;152.97;67.20;;;2.20;79.20;;;;;;5101379;28;20500;-68
2022/03/26 02:59:36;;;;;;;158.97;67.17;;;2.20;79.50;;;;;;5102338;28;20044;-68
2022/03/26 03:02:02;;;;;;;154.30;66.82;;;2.20;79.50;;;;;;5101887;28;20048;-68
2022/03/26 03:04:28;;;;;;;147.82;63.78;;;2.20;80.20;;;;;;5085242;28;20401;-68
2022/03/26 03:06:54;;;;;;;148.37;64.00;;;2.10;79.50;;;;;;5084262;28;20048;-67
2022/03/26 03:09:20;;;;;;;152.27;66.30;;;2.10;79.50;;;;;;5084815;28;20500;-67
2022/03/26 03:11:46;;;;;;;192.20;72.78;;;2.10;79.20;;;;;;5084249;28;20089;-67
2022/03/26 03:14:12;;;;;;;199.63;76.72;;;2.00;79.40;;;;;;5099487;28;20591;-67
2022/03/26 03:16:38;;;;;;;174.63;69.43;;;2.00;80.10;;;;;;5071773;28;20467;-67
2022/03/26 03:19:04;;;;;;;189.52;71.78;;;2.00;80.70;;;;;;5104831;27;20068;-67
2022/03/26 03:21:30;;;;;;;197.65;74.07;;;2.00;81.60;;;;;;5090445;28;20126;-67
2022/03/26 03:23:56;;;;;;;192.80;75.03;;;1.90;81.40;;;;;;5122508;27;20537;-67
2022/03/26 03:26:22;;;;;;;168.77;70.30;;;1.90;81.50;;;;;;5087946;28;20285;-67
2022/03/26 03:28:47;;;;;;;185.83;75.63;;;1.90;81.60;;;;;;5087521;28;20134;-67
2022/03/26 03:31:13;;;;;;;220.67;81.17;;;1.90;82.00;;;;;;5104681;28;20039;-67
2022/03/26 03:33:39;;;;;;;228.63;81.67;;;1.90;82.60;;;;;;5087485;28;20455;-67
2022/03/26 03:36:05;;;;;;;239.87;80.90;;;1.90;82.50;;;;;;5101419;28;20035;-67
2022/03/26 03:38:31;;;;;;;269.75;85.70;;;1.80;82.70;;;;;;5070572;28;20051;-67
2022/03/26 03:40:57;;;;;;;212.40;77.90;;;1.90;83.70;;;;;;5070893;28;20040;-67
2022/03/26 03:43:23;;;;;;;233.10;81.10;;;1.80;83.80;;;;;;5070634;28;20036;-67
2022/03/26 03:45:49;;;;;;;185.47;70.60;;;1.80;83.90;;;;;;5067229;28;20044;-67
2022/03/26 03:48:15;;;;;;;226.25;80.63;;;1.80;84.20;;;;;;5121150;27;20447;-67
2022/03/26 03:50:41;;;;;;;196.27;76.40;;;1.70;83.80;;;;;;5089435;28;20458;-67
2022/03/26 03:53:07;;;;;;;213.97;77.10;;;1.70;84.10;;;;;;5073860;28;20085;-67
2022/03/26 03:55:32;;;;;;;245.17;82.77;;;1.70;84.00;;;;;;5070539;28;20127;-67
2022/03/26 03:57:59;;;;;;;250.93;85.43;;;1.70;83.90;;;;;;5103643;28;20123;-67
2022/03/26 04:00:24;;;;;;;241.45;87.10;;;1.70;83.80;;;;;;5090228;28;20088;-67
2022/03/26 04:02:50;;;;;;;197.27;78.57;;;1.60;83.80;;;;;;5104449;28;20079;-67
2022/03/26 04:05:16;;;;;;;197.80;80.40;;;1.70;83.80;;;;;;5054487;28;20055;-67
2022/03/26 04:07:44;;;;;;;204.02;79.15;;;1.70;83.50;;;;;;5118711;27;20115;-67
2022/03/26 04:10:10;;;;;;;206.93;82.65;;;1.70;83.20;;;;;;5121332;27;20126;-67
2022/03/26 04:12:40;;;;;;;206.02;81.68;;;1.70;82.80;;;;;;5111890;27;20377;-67
2022/03/26 04:15:07;;;;;;;190.32;78.00;;;1.70;83.00;;;;;;5091568;28;20297;-67
2022/03/26 04:17:33;;;;;;;184.25;73.57;;;1.80;82.60;;;;;;5073339;28;20411;-67
2022/03/26 04:20:10;;;;;;;164.07;70.03;;;1.80;82.30;;;;;;5055035;28;20043;-67
2022/03/26 04:22:37;;;;;;;214.55;79.15;;;1.80;82.10;;;;;;5072507;28;20092;-67
2022/03/26 04:25:04;;;;;;;166.63;68.05;;;1.70;82.40;;;;;;5118550;27;20502;-67
2022/03/26 04:27:30;;;;;;;153.10;65.10;;;1.70;82.90;;;;;;5106138;28;20131;-67
2022/03/26 04:29:55;;;;;;;167.77;65.83;;;1.70;82.70;;;;;;5089339;28;20131;-67
2022/03/26 04:32:21;;;;;;;156.93;64.60;;;1.70;82.80;;;;;;5088474;28;20054;-67
2022/03/26 04:34:47;;;;;;;235.77;77.13;;;1.60;82.40;;;;;;5085066;28;20061;-67
2022/03/26 04:37:12;;;;;;;177.83;70.93;;;1.60;82.30;;;;;;5050045;28;20504;-67
2022/03/26 04:39:38;;;;;;;175.30;71.43;;;1.60;82.40;;;;;;5087369;28;20068;-67
2022/03/26 04:42:05;;;;;;;157.43;67.53;;;1.60;82.20;;;;;;5107268;28;20712;-67
2022/03/26 04:44:30;;;;;;;170.98;69.85;;;1.60;82.00;;;;;;5081143;28;20039;-67
2022/03/26 04:46:57;;;;;;;155.50;65.03;;;1.50;81.80;;;;;;5052514;28;20656;-67
2022/03/26 04:49:23;;;;;;;178.10;72.43;;;1.50;81.70;;;;;;5103902;28;20115;-67
2022/03/26 04:51:49;;;;;;;167.32;71.25;;;1.50;81.60;;;;;;5070731;28;20066;-67
2022/03/26 04:54:15;;;;;;;164.83;70.33;;;1.50;81.60;;;;;;5087632;28;20382;-67
2022/03/26 04:56:40;;;;;;;179.10;74.47;;;1.50;81.60;;;;;;5085160;28;20047;-67
2022/03/26 04:59:06;;;;;;;190.50;76.43;;;1.50;81.60;;;;;;5104224;28;20384;-67
2022/03/26 05:01:32;;;;;;;193.63;76.63;;;1.60;81.50;;;;;;5086936;28;20058;-67
2022/03/26 05:03:58;;;;;;;193.57;75.67;;;1.60;81.50;;;;;;5071139;28;20125;-67
2022/03/26 05:06:23;;;;;;;181.77;74.67;;;1.60;81.40;;;;;;5078684;28;20500;-67
2022/03/26 05:08:49;;;;;;;197.10;77.47;;;1.60;81.40;;;;;;5069695;28;20101;-67
2022/03/26 05:11:16;;;;;;;182.30;75.50;;;1.60;81.30;;;;;;5087570;28;20475;-67
2022/03/26 05:13:41;;;;;;;206.90;78.00;;;1.60;81.40;;;;;;5069439;28;20078;-68
2022/03/26 05:16:07;;;;;;;209.90;76.47;;;1.60;81.50;;;;;;5088828;28;20072;-68
2022/03/26 05:18:35;;;;;;;233.35;82.40;;;1.60;81.40;;;;;;5087236;28;20073;-67
2022/03/26 05:21:01;;;;;;;228.52;80.57;;;1.60;81.50;;;;;;5090366;28;20043;-67
2022/03/26 05:23:26;;;;;;;265.23;87.73;;;1.60;81.60;;;;;;5126126;27;20460;-67
2022/03/26 05:25:53;;;;;;;258.90;86.37;;;1.60;81.80;;;;;;5125835;27;20435;-68
2022/03/26 05:28:19;;;;;;;220.00;80.55;;;1.60;82.50;;;;;;5092662;28;20050;-67
2022/03/26 05:30:49;;;;;;;183.32;75.15;;;1.60;82.30;;;;;;5098901;28;20104;-67
2022/03/26 05:33:15;;;;;;;201.27;76.55;;;1.60;82.10;;;;;;5100550;28;20039;-67
2022/03/26 05:35:40;;;;;;;165.40;72.47;;;1.60;81.90;;;;;;5109877;27;20423;-68
2022/03/26 05:38:06;;;;;;;202.53;77.00;;;1.50;81.80;;;;;;5069708;28;20054;-67
2022/03/26 05:40:32;;;;;;;179.40;73.53;;;1.50;81.80;;;;;;5090197;28;20043;-67
2022/03/26 05:42:58;;;;;;;169.38;70.38;;;1.60;81.80;;;;;;5105973;27;20043;-67
2022/03/26 05:45:24;;;;;;;213.25;77.88;;;1.60;81.90;;;;;;5081525;28;20381;-67
2022/03/26 05:47:51;;;;;;;220.20;80.30;;;1.60;81.80;;;;;;5080011;28;20336;-67
2022/03/26 05:50:17;;;;;;;206.43;81.05;;;1.70;82.40;;;;;;5092095;28;20535;-67
2022/03/26 05:52:43;;;;;;;183.93;75.40;;;1.80;82.30;;;;;;5090013;28;20136;-67
2022/03/26 05:55:09;;;;;;;195.77;78.37;;;1.80;82.00;;;;;;5090894;28;20422;-67
2022/03/26 05:57:35;;;;;;;192.35;76.32;;;1.80;82.00;;;;;;5089519;27;20035;-68
2022/03/26 06:00:03;;;;;;;202.93;76.00;;;1.90;81.90;;;;;;5080141;27;20440;-68
2022/03/26 06:02:29;;;;;;;193.10;76.30;;;1.90;81.80;;;;;;5079911;28;20036;-68
2022/03/26 06:04:55;;;;;;;232.80;83.47;;;2.00;81.80;;;;;;5106825;27;20564;-68
2022/03/26 06:07:20;;;;;;;185.07;75.87;;;2.00;81.70;;;;;;5105035;28;20122;-68
2022/03/26 06:09:46;;;;;;;229.63;82.33;;;2.10;81.80;;;;;;5075019;28;20032;-68
2022/03/26 06:12:12;;;;;;;188.67;75.63;;;2.20;81.80;;;;;;5079778;28;20031;-68
2022/03/26 06:14:37;;;;;;;175.23;73.70;;;2.20;81.80;;;;;;5106616;27;20484;-68
2022/03/26 06:17:03;;;;;;;184.03;74.23;;;2.30;81.80;;;;;;5094147;28;20053;-68
2022/03/26 06:19:29;;;;;;;194.68;77.18;;;2.40;82.00;;;;;;5106228;28;20089;-68
2022/03/26 06:21:55;;;;;;;263.87;88.63;;;2.50;82.30;;;;;;5105063;28;20040;-68
2022/03/26 06:24:21;;;;;;;235.23;87.57;;;2.60;82.20;;;;;;5092047;28;20432;-68
2022/03/26 06:26:48;;;;;;;259.93;90.03;;;2.80;82.20;;;;;;5124784;27;20058;-68
2022/03/26 06:29:14;;;;;;;222.25;83.57;;;2.90;82.30;;;;;;5084657;28;20051;-68
2022/03/26 06:31:41;;;;;;;207.35;82.22;;;3.00;82.30;;;;;;5068214;28;20047;-68
2022/03/26 06:34:06;;;;;;;199.00;82.22;;;3.10;82.20;;;;;;5083646;28;20384;-68
2022/03/26 06:36:34;;;;;;;198.80;79.60;;;3.20;82.20;;;;;;5068887;28;20044;-68
2022/03/26 06:39:04;;;;;;;220.75;84.60;;;3.30;82.30;;;;;;5084910;28;20462;-68
2022/03/26 06:41:29;;;;;;;220.85;85.93;;;3.40;82.10;;;;;;5084454;28;20129;-68
2022/03/26 06:43:55;;;;;;;238.47;87.57;;;3.50;82.20;;;;;;5084967;28;20352;-68
2022/03/26 06:46:21;;;;;;;214.33;84.73;;;3.80;82.00;;;;;;5084078;28;20040;-68
2022/03/26 06:48:46;;;;;;;222.47;89.40;;;4.00;82.20;;;;;;5062997;28;20545;-68
2022/03/26 06:51:13;;;;;;;220.80;88.20;;;4.10;82.10;;;;;;5045453;28;20064;-68
2022/03/26 06:53:38;;;;;;;226.32;88.68;;;4.30;82.50;;;;;;5066401;28;20164;-68
2022/03/26 06:56:08;;;;;;;208.47;84.97;;;4.50;82.20;;;;;;5117381;27;20069;-68
2022/03/26 06:58:34;;;;;;;190.63;82.78;;;4.60;82.20;;;;;;5083040;28;20090;-69
2022/03/26 07:01:01;;;;;;;188.20;79.50;;;4.80;82.20;;;;;;5066135;28;20040;-69
2022/03/26 07:03:27;;;;;;;176.02;76.85;;;4.90;82.20;;;;;;5069636;28;20393;-69
2022/03/26 07:05:54;;;;;;;163.60;73.50;;;5.00;82.00;;;;;;5100603;28;20131;-69
2022/03/26 07:08:20;;;;;;;150.93;70.60;;;5.20;82.00;;;;;;5118533;27;20044;-69
2022/03/26 07:10:46;;;;;;;152.23;69.73;;;5.30;81.90;;;;;;5080798;28;20121;-69
2022/03/26 07:13:13;;;;;;;167.68;74.30;;;5.30;81.90;;;;;;5118774;27;20051;-69
2022/03/26 07:15:39;;;;;;;153.73;71.05;;;5.40;81.80;;;;;;5098914;28;20121;-69
2022/03/26 07:18:05;;;;;;;153.87;70.70;;;5.60;82.10;;;;;;5067992;28;20483;-69
2022/03/26 07:20:30;;;;;;;154.30;70.13;;;5.70;82.20;;;;;;5101167;28;20111;-69
2022/03/26 07:22:56;;;;;;;152.93;71.03;;;5.90;82.00;;;;;;5067505;28;20209;-68
2022/03/26 07:25:22;;;;;;;159.23;71.40;;;6.00;82.00;;;;;;5070564;28;20060;-68
2022/03/26 07:27:48;;;;;;;154.88;71.75;;;6.20;82.10;;;;;;5079363;28;20101;-68
2022/03/26 07:30:14;;;;;;;153.90;72.47;;;6.40;82.10;;;;;;5092247;28;20071;-68
2022/03/26 07:32:40;;;;;;;136.07;68.83;;;6.50;81.70;;;;;;5071869;28;20140;-68
2022/03/26 07:35:06;;;;;;;145.45;69.57;;;6.70;81.50;;;;;;5071197;28;20051;-68
2022/03/26 07:37:32;;;;;;;147.38;72.47;;;6.80;81.50;;;;;;5080342;28;20133;-69
2022/03/26 07:39:58;;;;;;;147.00;72.87;;;7.00;81.30;;;;;;5060263;28;20083;-69
2022/03/26 07:42:24;;;;;;;148.18;71.38;;;7.20;81.20;;;;;;5097055;28;20519;-69
2022/03/26 07:44:50;;;;;;;139.57;67.97;;;7.30;80.70;;;;;;5072612;28;20039;-69
2022/03/26 07:47:16;;;;;;;134.67;66.03;;;7.40;80.50;;;;;;5068041;28;20134;-69
2022/03/26 07:49:41;;;;;;;133.70;67.07;;;7.60;80.60;;;;;;5069122;28;20101;-69
2022/03/26 07:52:07;;;;;;;125.00;61.87;;;7.70;80.30;;;;;;5068793;28;20078;-69
2022/03/26 07:54:33;;;;;;;127.32;65.07;;;7.90;80.00;;;;;;5072393;28;20047;-69
2022/03/26 07:56:59;;;;;;;125.50;62.73;;;8.10;79.60;;;;;;5052087;28;20745;-69
2022/03/26 07:59:24;;;;;;;123.37;63.57;;;8.20;79.40;;;;;;5069716;28;20051;-69
2022/03/26 08:01:50;;;;;;;126.57;63.80;;;8.30;79.10;;;;;;5084075;28;20089;-69
2022/03/26 08:04:16;;;;;;;120.73;62.03;;;8.40;78.80;;;;;;5057664;28;20339;-69
2022/03/26 08:06:41;;;;;;;119.10;60.60;;;8.50;78.40;;;;;;5070835;28;20774;-69
2022/03/26 08:09:07;;;;;;;121.97;60.10;;;8.70;78.10;;;;;;5081407;28;20051;-69
2022/03/26 08:11:33;;;;;;;123.90;58.80;;;8.80;77.60;;;;;;5069995;28;20432;-69
2022/03/26 08:13:58;;;;;;;126.23;61.57;;;9.00;77.20;;;;;;5055891;28;20039;-69
2022/03/26 08:16:24;;;;;;;112.50;58.17;;;9.10;76.80;;;;;;5089416;28;20051;-69
2022/03/26 08:18:50;;;;;;;119.57;59.50;;;9.30;76.20;;;;;;5069801;28;20071;-69
2022/03/26 08:21:17;;;;;;;108.17;55.60;;;9.40;75.60;;;;;;5088181;28;20127;-69
2022/03/26 08:23:43;;;;;;;105.95;55.42;;;9.60;75.20;;;;;;5081486;28;20054;-69
2022/03/26 08:29:07;;;;;;;107.10;52.70;;;9.70;73.90;;;;;;5041432;27;20051;-69
2022/03/26 08:31:33;;;;;;;105.20;54.47;;;9.90;73.70;;;;;;5093606;27;20050;-69
2022/03/26 08:34:02;;;;;;;100.00;52.67;;;10.00;73.30;;;;;;5091997;28;20211;-69
2022/03/26 08:36:28;;;;;;;106.38;53.03;;;10.10;73.20;;;;;;5087453;28;20035;-69
2022/03/26 08:38:54;;;;;;;100.40;52.60;;;10.20;72.10;;;;;;5123555;27;20038;-69
2022/03/26 08:41:22;;;;;;;98.40;52.50;;;10.40;71.90;;;;;;5096776;27;20114;-69
2022/03/26 08:43:52;;;;;;;93.50;51.80;;;10.50;71.90;;;;;;5058944;27;20032;-69
2022/03/26 08:46:19;;;;;;;93.93;51.72;;;10.60;70.90;;;;;;5088762;28;20044;-69
2022/03/26 08:48:46;;;;;;;100.47;51.22;;;10.70;70.90;;;;;;5071943;28;20103;-69
2022/03/26 08:51:11;;;;;;;91.18;49.55;;;10.80;70.60;;;;;;5104185;27;20466;-70
2022/03/26 08:53:37;;;;;;;91.67;50.40;;;10.90;70.10;;;;;;5102270;27;20426;-69
2022/03/26 08:56:05;;;;;;;88.50;49.00;;;11.10;69.20;;;;;;5086858;28;20044;-69
2022/03/26 08:58:31;;;;;;;91.75;50.45;;;11.10;68.70;;;;;;5056752;27;20483;-70
2022/03/26 09:00:56;;;;;;;83.00;46.75;;;11.20;68.60;;;;;;5088628;28;20047;-70
2022/03/26 09:03:22;;;;;;;86.40;47.23;;;11.40;68.50;;;;;;5122983;27;20054;-69
2022/03/26 09:05:49;;;;;;;82.20;42.43;;;11.60;67.90;;;;;;5089851;28;20545;-69
2022/03/26 09:08:14;;;;;;;87.07;46.90;;;11.70;67.00;;;;;;5103707;28;20199;-70
2022/03/26 09:10:40;;;;;;;78.70;43.67;;;11.80;67.10;;;;;;5098773;27;20031;-70
2022/03/26 09:13:06;;;;;;;75.33;41.30;;;11.90;66.60;;;;;;5087933;28;20160;-69
2022/03/26 09:15:32;;;;;;;77.67;41.07;;;12.10;66.50;;;;;;5092927;27;20760;-69
2022/03/26 09:17:59;;;;;;;73.20;42.03;;;12.30;65.50;;;;;;5084031;28;20042;-69
2022/03/26 09:20:25;;;;;;;72.30;41.33;;;12.40;65.10;;;;;;5088902;28;20035;-70
2022/03/26 09:22:52;;;;;;;74.78;39.65;;;12.50;64.80;;;;;;5071509;28;20046;-70
2022/03/26 09:25:19;;;;;;;71.18;41.10;;;12.60;64.40;;;;;;5085420;28;20201;-70
2022/03/26 09:27:44;;;;;;;72.20;40.03;;;12.70;64.20;;;;;;5085057;28;20055;-70
2022/03/26 09:30:11;;;;;;;68.90;38.67;;;12.80;63.90;;;;;;5083340;28;20040;-70
2022/03/26 09:32:36;;;;;;;71.10;40.15;;;12.80;63.60;;;;;;5068636;28;20159;-70
2022/03/26 09:35:04;;;;;;;67.80;39.53;;;12.90;63.60;;;;;;5067246;28;20460;-70
2022/03/26 09:37:29;;;;;;;70.05;40.75;;;12.90;63.70;;;;;;5096485;27;20048;-70
2022/03/26 09:39:55;;;;;;;71.80;38.80;;;13.00;63.40;;;;;;5079723;28;20081;-70
2022/03/26 09:42:23;;;;;;;65.87;37.53;;;13.10;63.70;;;;;;5102781;28;20039;-70
2022/03/26 09:44:51;;;;;;;69.57;39.53;;;13.20;63.40;;;;;;5101771;28;20472;-70
2022/03/26 09:47:17;;;;;;;64.90;36.00;;;13.30;63.10;;;;;;5100925;27;20044;-70
2022/03/26 09:49:43;;;;;;;57.53;35.10;;;13.40;63.40;;;;;;5085235;28;20036;-70
2022/03/26 09:52:09;;;;;;;62.77;36.40;;;13.40;63.10;;;;;;5086691;28;20282;-70
2022/03/26 09:54:36;;;;;;;52.70;34.70;;;13.50;63.30;;;;;;5068646;28;20082;-70
2022/03/26 09:57:04;;;;;;;51.77;31.70;;;13.60;63.40;;;;;;5073477;28;20039;-70
2022/03/26 09:59:30;;;;;;;55.73;32.93;;;13.70;62.10;;;;;;5104135;27;20725;-70
2022/03/26 10:01:55;;;;;;;46.57;30.17;;;13.80;62.00;;;;;;5127028;27;20332;-70
2022/03/26 10:04:23;;;;;;;37.93;25.37;;;13.90;62.10;;;;;;5081706;28;20074;-70
2022/03/26 10:06:54;;;;;;;41.00;26.43;;;14.00;62.00;;;;;;5090033;27;21066;-70
2022/03/26 10:09:39;;;;;;;37.50;25.77;;;14.10;61.50;;;;;;5116511;27;20302;-70
2022/03/26 10:12:17;;;;;;;34.22;23.83;;;14.30;61.20;;;;;;5116101;27;21015;-70
2022/03/26 10:14:48;;;;;;;32.03;20.23;;;14.40;61.30;;;;;;5089108;28;20047;-70
2022/03/26 10:17:19;;;;;;;30.50;19.23;;;14.50;60.30;;;;;;5074567;28;20271;-70
2022/03/26 10:19:52;;;;;;;31.43;20.43;;;14.60;59.90;;;;;;5085337;28;20286;-71
2022/03/26 10:22:25;;;;;;;31.73;21.27;;;14.70;59.20;;;;;;5116867;27;20296;-70
2022/03/26 10:24:51;;;;;;;30.77;19.57;;;14.70;59.10;;;;;;5087964;28;20691;-70
2022/03/26 10:27:18;;;;;;;29.77;18.83;;;14.80;59.30;;;;;;5068156;28;20336;-71
2022/03/26 10:29:55;;;;;;;24.90;16.83;;;14.90;58.90;;;;;;5092942;28;20744;-70
2022/03/26 10:32:39;;;;;;;24.40;14.97;;;15.00;57.80;;;;;;5069316;28;20270;-70
2022/03/26 10:35:24;;;;;;;22.67;14.67;;;15.10;57.00;;;;;;5066961;28;20985;-70
2022/03/26 10:37:59;;;;;;;21.90;14.02;;;15.20;57.00;;;;;;5078311;28;20787;-71
2022/03/26 10:40:34;;;;;;;20.73;14.20;;;15.30;55.50;;;;;;5070933;28;20514;-71
2022/03/26 10:43:14;;;;;;;20.60;14.02;;;15.30;55.30;;;;;;5070194;28;20122;-71
2022/03/26 10:45:47;;;;;;;23.53;14.70;;;15.40;55.70;;;;;;5092711;28;20054;-71
2022/03/26 10:48:13;;;;;;;20.63;13.30;;;15.50;54.90;;;;;;5072625;28;20285;-71
2022/03/26 10:50:39;;;;;;;22.00;13.77;;;15.50;55.30;;;;;;5090968;28;20309;-71
2022/03/26 10:53:07;;;;;;;21.20;13.07;;;15.60;54.40;;;;;;5085754;28;20044;-71
2022/03/26 10:55:35;;;;;;;19.40;13.90;;;15.70;54.30;;;;;;5074799;28;20834;-71
2022/03/26 10:58:05;;;;;;;19.23;13.97;;;15.80;54.30;;;;;;5122916;27;20294;-72
2022/03/26 11:00:30;;;;;;;18.47;11.50;;;15.90;54.90;;;;;;5120661;27;20274;-71
2022/03/26 11:02:56;;;;;;;17.83;11.50;;;16.00;54.50;;;;;;5085071;28;20286;-71
2022/03/26 11:05:22;;;;;;;17.97;11.57;;;16.10;53.80;;;;;;5087150;28;20071;-71
2022/03/26 11:07:51;;;;;;;14.67;9.40;;;16.20;54.20;;;;;;5053890;28;20150;-71
2022/03/26 11:10:17;;;;;;;12.47;8.30;;;16.30;53.10;;;;;;5069346;28;21047;-71
2022/03/26 11:12:46;;;;;;;13.70;9.60;;;16.30;52.10;;;;;;5050604;28;20286;-71
2022/03/26 11:15:23;;;;;;;14.97;8.77;;;16.30;51.40;;;;;;5122939;27;20355;-71
2022/03/26 11:18:05;;;;;;;11.40;7.60;;;16.40;51.10;;;;;;5117598;27;20278;-71
2022/03/26 11:20:30;;;;;;;16.40;8.30;;;16.40;51.00;;;;;;5085521;28;20289;-71
2022/03/26 11:23:27;;;;;;;16.47;10.17;;;16.40;51.30;;;;;;5083477;28;20289;-72
2022/03/26 11:26:02;;;;;;;15.50;9.93;;;16.50;51.70;;;;;;5084073;28;20052;-71
2022/03/26 11:28:50;;;;;;;13.70;9.48;;;16.60;51.70;;;;;;5100123;28;20306;-71
2022/03/26 11:31:27;;;;;;;11.10;7.73;;;16.60;51.60;;;;;;5101309;28;20461;-71
2022/03/26 11:34:03;;;;;;;11.03;7.80;;;16.60;50.90;;;;;;5117138;27;20282;-72
2022/03/26 11:36:29;;;;;;;16.43;8.67;;;16.60;50.90;;;;;;5106227;28;20369;-72
2022/03/26 11:39:07;;;;;;;9.67;7.67;;;16.60;51.60;;;;;;5092982;28;20282;-71
2022/03/26 11:41:33;;;;;;;10.83;8.07;;;16.70;51.90;;;;;;5123671;27;20921;-71
2022/03/26 11:44:01;;;;;;;9.80;7.07;;;16.80;51.90;;;;;;5106444;27;20286;-71
2022/03/26 11:52:27;;;;;;;10.60;7.93;;;16.80;50.60;;;;;;5088909;28;20285;-71
2022/03/26 11:55:14;;;;;;;12.20;7.67;;;16.90;51.00;;;;;;5069496;28;20282;-71
2022/03/26 11:57:40;;;;;;;11.37;7.50;;;17.00;51.10;;;;;;5089607;28;20286;-71
2022/03/26 12:00:16;;;;;;;8.93;6.43;;;17.00;51.10;;;;;;5091776;28;20965;-71
2022/03/26 12:02:51;;;;;;;11.67;6.20;;;17.10;50.40;;;;;;5087686;28;20381;-71
2022/03/26 12:08:40;;;;;;;6.80;5.07;;;17.10;49.20;;;;;;4990783;28;20293;-72
2022/03/26 12:11:06;;;;;;;6.40;4.73;;;17.00;48.70;;;;;;5077445;28;20341;-70
2022/03/26 12:13:34;;;;;;;7.27;5.10;;;17.00;48.40;;;;;;5094269;28;21167;-69
2022/03/26 12:16:04;;;;;;;9.53;4.90;;;17.00;48.70;;;;;;5072291;28;20110;-70
2022/03/26 12:18:37;;;;;;;8.57;4.67;;;17.00;47.90;;;;;;5061224;28;20342;-71
2022/03/26 12:21:19;;;;;;;5.77;4.10;;;16.90;47.20;;;;;;5069725;28;20510;-70
2022/03/26 12:23:45;;;;;;;8.50;4.27;;;16.80;48.00;;;;;;5062053;28;20312;-70
2022/03/26 12:26:12;;;;;;;8.33;4.20;;;16.80;47.70;;;;;;5110091;27;20318;-70
2022/03/26 12:28:40;;;;;;;8.47;5.13;;;16.80;47.70;;;;;;5057912;28;20037;-70
2022/03/26 12:31:11;;;;;;;6.67;4.10;;;16.80;48.50;;;;;;5115207;27;20716;-70
2022/03/26 12:33:45;;;;;;;8.63;4.37;;;16.80;48.50;;;;;;5094062;28;20326;-70
2022/03/26 12:36:14;;;;;;;9.02;5.07;;;16.80;48.70;;;;;;5071516;28;20311;-71
2022/03/26 12:38:40;;;;;;;7.30;4.47;;;16.90;49.00;;;;;;5070245;28;20037;-70
2022/03/26 12:41:07;;;;;;;7.93;5.00;;;16.90;49.20;;;;;;5053553;28;20289;-70